createdAt,value
2022-11-21T00:01:14.709Z,40.87
2022-11-21T00:03:41.219Z,41.67
2022-11-21T00:06:07.786Z,43.20
2022-11-21T00:08:34.930Z,42.57
2022-11-21T00:11:01.475Z,42.37
2022-11-21T00:13:27.941Z,43.50
2022-11-21T00:15:54.464Z,44.83
2022-11-21T00:18:20.897Z,43.77
2022-11-21T00:20:47.358Z,44.13
2022-11-21T00:23:13.975Z,42.70
2022-11-21T00:25:40.448Z,43.07
2022-11-21T00:28:06.925Z,43.97
2022-11-21T00:30:34.095Z,45.13
2022-11-21T00:33:00.625Z,42.60
2022-11-21T00:35:27.352Z,43.30
2022-11-21T00:37:53.799Z,44.70
2022-11-21T00:40:20.334Z,42.87
2022-11-21T00:42:46.937Z,42.40
2022-11-21T00:45:13.564Z,44.23
2022-11-21T00:47:39.986Z,43.67
2022-11-21T00:50:06.767Z,41.23
2022-11-21T00:52:33.786Z,45.60
2022-11-21T00:55:00.466Z,42.03
2022-11-21T00:57:26.980Z,42.90
2022-11-21T00:59:53.567Z,43.53
2022-11-21T01:02:20.028Z,43.30
2022-11-21T01:04:46.521Z,44.80
2022-11-21T01:07:14.639Z,42.70
2022-11-21T01:09:41.278Z,42.53
2022-11-21T01:12:07.846Z,44.20
2022-11-21T01:14:35.120Z,40.50
2022-11-21T01:17:01.617Z,45.57
2022-11-21T01:19:28.059Z,43.87
2022-11-21T01:21:54.502Z,42.73
2022-11-21T01:24:21.047Z,43.40
2022-11-21T01:26:49.079Z,41.77
2022-11-21T01:29:15.507Z,44.03
2022-11-21T01:31:41.980Z,42.43
2022-11-21T01:34:08.436Z,43.53
2022-11-21T01:36:35.388Z,41.50
2022-11-21T01:39:04.755Z,41.57
2022-11-21T01:41:37.282Z,42.93
2022-11-21T01:44:14.146Z,42.60
2022-11-21T01:46:40.746Z,42.63
2022-11-21T01:49:14.168Z,41.50
2022-11-21T01:51:54.460Z,41.33
2022-11-21T01:54:40.703Z,42.00
2022-11-21T01:57:35.235Z,42.37
2022-11-21T02:00:06.980Z,42.40
2022-11-21T02:02:36.885Z,43.07
2022-11-21T02:05:05.244Z,42.50
2022-11-21T02:07:36.018Z,42.07
2022-11-21T02:10:03.459Z,42.07
2022-11-21T02:12:34.903Z,45.20
2022-11-21T02:15:01.900Z,44.57
2022-11-21T02:17:31.452Z,44.37
2022-11-21T02:19:59.863Z,44.50
2022-11-21T02:22:39.787Z,44.70
2022-11-21T02:25:12.863Z,43.17
2022-11-21T02:27:39.443Z,44.33
2022-11-21T02:30:08.605Z,43.47
2022-11-21T02:32:38.116Z,45.50
2022-11-21T02:35:05.488Z,42.60
2022-11-21T02:37:32.538Z,44.60
2022-11-21T02:40:01.751Z,44.30
2022-11-21T02:42:32.402Z,43.70
2022-11-21T02:45:19.668Z,45.03
2022-11-21T02:47:47.063Z,45.87
2022-11-21T02:50:16.851Z,44.80
2022-11-21T02:52:43.311Z,45.40
2022-11-21T02:55:11.597Z,45.27
2022-11-21T02:57:39.721Z,45.80
2022-11-21T03:00:06.721Z,43.57
2022-11-21T03:02:35.697Z,44.63
2022-11-21T03:05:02.763Z,44.73
2022-11-21T03:07:29.338Z,43.40
2022-11-21T03:09:55.901Z,45.50
2022-11-21T03:12:22.442Z,46.23
2022-11-21T03:14:49.076Z,46.40
2022-11-21T03:17:15.522Z,45.60
2022-11-21T03:19:41.994Z,46.33
2022-11-21T03:22:08.779Z,44.57
2022-11-21T03:24:35.492Z,45.87
2022-11-21T03:27:02.062Z,44.27
2022-11-21T03:29:28.634Z,44.90
2022-11-21T03:31:55.221Z,44.60
2022-11-21T03:34:21.772Z,43.80
2022-11-21T03:36:48.394Z,45.03
2022-11-21T03:39:14.954Z,46.27
2022-11-21T03:41:41.437Z,45.50
2022-11-21T03:44:10.036Z,45.20
2022-11-21T03:46:38.310Z,44.10
2022-11-21T03:49:05.540Z,46.17
2022-11-21T03:51:32.353Z,43.57
2022-11-21T03:53:59.415Z,46.13
2022-11-21T03:56:26.398Z,46.20
2022-11-21T03:58:53.696Z,46.60
2022-11-21T04:01:20.659Z,44.17
2022-11-21T04:03:47.482Z,43.90
2022-11-21T04:06:16.146Z,44.83
2022-11-21T04:08:43.260Z,45.53
2022-11-21T04:11:10.660Z,45.77
2022-11-21T04:13:38.017Z,44.13
2022-11-21T04:16:05.125Z,44.47
2022-11-21T04:18:31.689Z,43.40
2022-11-21T04:20:59.477Z,41.70
2022-11-21T04:23:26.462Z,44.30
2022-11-21T04:25:53.663Z,42.10
2022-11-21T04:28:21.499Z,42.60
2022-11-21T04:30:47.927Z,44.50
2022-11-21T04:33:15.369Z,43.07
2022-11-21T04:35:43.517Z,43.90
2022-11-21T04:38:10.525Z,47.70
2022-11-21T04:40:37.332Z,44.77
2022-11-21T04:43:04.425Z,45.53
2022-11-21T04:45:30.862Z,43.37
2022-11-21T04:47:57.348Z,42.73
2022-11-21T04:50:23.867Z,43.17
2022-11-21T04:52:55.751Z,44.77
2022-11-21T04:55:24.495Z,46.17
2022-11-21T04:57:50.981Z,44.23
2022-11-21T05:00:23.729Z,40.93
2022-11-21T05:02:51.007Z,44.03
2022-11-21T05:05:17.818Z,44.33
2022-11-21T05:07:44.314Z,43.93
2022-11-21T05:10:11.153Z,44.23
2022-11-21T05:12:56.426Z,45.70
2022-11-21T05:15:24.841Z,45.30
2022-11-21T05:17:51.874Z,44.33
2022-11-21T05:20:18.873Z,44.17
2022-11-21T05:22:50.461Z,43.70
2022-11-21T05:25:17.048Z,44.23
2022-11-21T05:27:43.553Z,44.73
2022-11-21T05:30:11.324Z,44.37
2022-11-21T05:32:37.850Z,46.97
2022-11-21T05:35:04.600Z,46.43
2022-11-21T05:37:31.221Z,45.23
2022-11-21T05:39:57.819Z,47.23
2022-11-21T05:42:44.682Z,47.07
2022-11-21T05:45:11.242Z,47.57
2022-11-21T05:47:37.708Z,46.40
2022-11-21T05:50:04.826Z,46.47
2022-11-21T05:52:31.338Z,45.87
2022-11-21T05:54:57.771Z,47.17
2022-11-21T05:57:24.358Z,46.70
2022-11-21T05:59:50.896Z,48.17
2022-11-21T06:02:36.225Z,48.60
2022-11-21T06:05:02.787Z,47.93
2022-11-21T06:07:29.356Z,48.93
2022-11-21T06:09:55.894Z,49.30
2022-11-21T06:12:25.397Z,48.50
2022-11-21T06:14:52.629Z,47.60
2022-11-21T06:17:19.492Z,48.70
2022-11-21T06:19:46.106Z,48.43
2022-11-21T06:22:12.605Z,49.50
2022-11-21T06:24:39.259Z,46.70
2022-11-21T06:27:05.751Z,45.13
2022-11-21T06:29:32.253Z,47.80
2022-11-21T06:31:58.788Z,48.23
2022-11-21T06:34:28.086Z,48.33
2022-11-21T06:36:54.614Z,49.63
2022-11-21T06:39:21.357Z,53.47
2022-11-21T06:41:51.281Z,49.50
2022-11-21T06:44:20.477Z,45.90
2022-11-21T06:46:50.977Z,43.43
2022-11-21T06:49:18.143Z,45.33
2022-11-21T06:51:44.568Z,46.03
2022-11-21T06:54:16.259Z,45.07
2022-11-21T06:56:43.724Z,47.83
2022-11-21T06:59:10.222Z,43.00
2022-11-21T07:01:37.022Z,44.33
2022-11-21T07:04:03.589Z,42.13
2022-11-21T07:06:30.006Z,41.83
2022-11-21T07:09:32.089Z,42.40
2022-11-21T07:11:43.473Z,40.63
2022-11-21T07:14:10.211Z,43.17
2022-11-21T07:16:37.048Z,43.93
2022-11-21T07:19:03.604Z,43.03
2022-11-21T07:21:30.290Z,40.93
2022-11-21T07:23:56.903Z,40.57
2022-11-21T07:26:23.512Z,40.33
2022-11-21T07:28:50.500Z,38.53
2022-11-21T07:31:17.034Z,38.50
2022-11-21T07:33:43.814Z,38.73
2022-11-21T07:36:11.394Z,38.77
2022-11-21T07:38:37.964Z,35.30
2022-11-21T07:41:04.642Z,36.57
2022-11-21T07:43:31.250Z,36.20
2022-11-21T07:45:57.711Z,37.00
2022-11-21T07:48:24.150Z,36.27
2022-11-21T07:50:50.597Z,37.53
2022-11-21T07:53:17.138Z,34.63
2022-11-21T07:55:43.663Z,35.30
2022-11-21T07:58:12.667Z,39.00
2022-11-21T08:00:42.667Z,35.23
2022-11-21T08:03:09.839Z,34.30
2022-11-21T08:05:41.197Z,34.07
2022-11-21T08:08:08.279Z,32.30
2022-11-21T08:10:40.469Z,34.23
2022-11-21T08:13:07.227Z,32.27
2022-11-21T08:15:34.367Z,31.87
2022-11-21T08:18:14.869Z,32.33
2022-11-21T08:20:42.029Z,30.07
2022-11-21T08:23:10.068Z,28.27
2022-11-21T08:25:40.163Z,26.00
2022-11-21T08:28:09.186Z,27.93
2022-11-21T08:30:36.581Z,27.57
2022-11-21T08:33:04.117Z,27.57
2022-11-21T08:35:30.972Z,27.67
2022-11-21T08:37:58.402Z,29.13
2022-11-21T08:40:26.473Z,27.30
2022-11-21T08:42:59.142Z,29.17
2022-11-21T08:45:26.941Z,28.27
2022-11-21T08:47:54.020Z,29.87
2022-11-21T08:50:20.991Z,27.50
2022-11-21T08:52:47.599Z,27.63
2022-11-21T08:55:14.287Z,28.37
2022-11-21T08:57:41.378Z,29.93
2022-11-21T09:00:09.597Z,28.40
2022-11-21T09:02:36.488Z,30.23
2022-11-21T09:05:03.142Z,27.07
2022-11-21T09:07:29.670Z,27.47
2022-11-21T09:09:56.136Z,26.17
2022-11-21T09:12:22.577Z,26.37
2022-11-21T09:15:07.558Z,24.97
2022-11-21T09:17:52.996Z,25.33
2022-11-21T09:20:19.554Z,25.10
2022-11-21T09:22:47.034Z,25.43
2022-11-21T09:25:13.802Z,26.30
2022-11-21T09:27:40.371Z,25.27
2022-11-21T09:30:07.572Z,25.33
2022-11-21T09:32:34.622Z,23.70
2022-11-21T09:35:01.306Z,24.57
2022-11-21T09:37:27.840Z,23.80
2022-11-21T09:39:54.333Z,22.87
2022-11-21T09:42:46.287Z,23.43
2022-11-21T09:45:13.170Z,22.53
2022-11-21T09:47:44.550Z,22.53
2022-11-21T09:50:13.724Z,21.60
2022-11-21T09:52:50.763Z,24.00
2022-11-21T09:55:26.632Z,23.03
2022-11-21T09:57:53.921Z,23.77
2022-11-21T10:00:25.182Z,24.97
2022-11-21T10:02:52.263Z,25.03
2022-11-21T10:05:26.135Z,23.90
2022-11-21T10:07:54.146Z,22.60
2022-11-21T10:10:55.377Z,23.00
2022-11-21T10:13:28.856Z,23.20
2022-11-21T10:16:06.064Z,23.00
2022-11-21T10:18:54.071Z,22.40
2022-11-21T10:21:53.958Z,22.57
2022-11-21T10:24:28.505Z,23.70
2022-11-21T10:26:59.144Z,22.30
2022-11-21T10:29:32.795Z,20.90
2022-11-21T10:32:03.734Z,22.70
2022-11-21T10:34:32.907Z,24.20
2022-11-21T10:37:09.084Z,25.60
2022-11-21T10:39:41.631Z,24.90
2022-11-21T10:42:39.300Z,25.70
2022-11-21T10:45:17.028Z,27.67
2022-11-21T10:47:45.135Z,26.60
2022-11-21T10:50:20.607Z,28.90
2022-11-21T10:52:51.367Z,29.07
2022-11-21T10:55:18.279Z,29.10
2022-11-21T10:57:51.967Z,28.10
2022-11-21T11:00:22.566Z,29.23
2022-11-21T11:03:00.282Z,29.23
2022-11-21T11:05:31.134Z,30.10
2022-11-21T11:08:10.616Z,29.53
2022-11-21T11:11:01.817Z,28.90
2022-11-21T11:13:46.940Z,27.57
2022-11-21T11:16:18.732Z,27.60
2022-11-21T11:18:47.977Z,29.03
2022-11-21T11:21:26.400Z,28.20
2022-11-21T11:23:54.026Z,29.10
2022-11-21T11:26:24.484Z,28.40
2022-11-21T11:28:51.693Z,28.80
2022-11-21T11:31:18.281Z,27.90
2022-11-21T11:33:47.348Z,27.13
2022-11-21T11:36:31.994Z,28.20
2022-11-21T11:38:59.700Z,26.50
2022-11-21T11:42:03.467Z,27.20
2022-11-21T11:44:59.777Z,27.40
2022-11-21T11:47:32.628Z,27.80
2022-11-21T11:50:13.083Z,28.93
2022-11-21T11:52:47.071Z,28.03
2022-11-21T11:55:22.051Z,25.17
2022-11-21T11:57:50.938Z,27.53
2022-11-21T12:00:32.748Z,26.80
2022-11-21T12:03:15.164Z,25.57
2022-11-21T12:06:08.959Z,27.03
2022-11-21T12:08:44.813Z,26.30
2022-11-21T12:11:41.083Z,26.13
2022-11-21T12:14:35.470Z,25.90
2022-11-21T12:17:05.303Z,26.73
2022-11-21T12:19:32.068Z,26.57
2022-11-21T12:21:58.642Z,25.63
2022-11-21T12:24:25.094Z,25.43
2022-11-21T12:27:28.280Z,27.97
2022-11-21T12:30:14.712Z,28.73
2022-11-21T12:33:09.253Z,26.07
2022-11-21T12:35:35.808Z,26.07
2022-11-21T12:38:21.988Z,26.00
2022-11-21T12:41:27.043Z,24.37
2022-11-21T12:44:07.423Z,24.57
2022-11-21T12:46:52.539Z,25.97
2022-11-21T12:49:56.402Z,26.63
2022-11-21T12:52:44.248Z,24.73
2022-11-21T12:55:35.532Z,24.57
2022-11-21T12:58:17.813Z,24.90
2022-11-21T13:01:06.959Z,25.77
2022-11-21T13:03:44.970Z,26.07
2022-11-21T13:06:33.897Z,24.77
2022-11-21T13:09:02.584Z,24.37
2022-11-21T13:11:58.916Z,24.13
2022-11-21T13:14:29.965Z,23.90
2022-11-21T13:17:11.965Z,25.10
2022-11-21T13:19:58.068Z,26.47
2022-11-21T13:22:36.579Z,26.40
2022-11-21T13:25:40.913Z,25.33
2022-11-21T13:28:13.879Z,27.73
2022-11-21T13:30:54.063Z,26.50
2022-11-21T13:33:35.993Z,26.00
2022-11-21T13:36:06.051Z,27.37
2022-11-21T13:38:55.849Z,27.33
2022-11-21T13:41:54.724Z,26.93
2022-11-21T13:44:35.595Z,27.33
2022-11-21T13:47:12.464Z,27.27
2022-11-21T13:50:17.096Z,26.90
2022-11-21T13:53:04.795Z,27.87
2022-11-21T13:56:29.993Z,27.80
2022-11-21T13:59:24.578Z,27.43
2022-11-21T14:02:39.693Z,28.43
2022-11-21T14:05:36.983Z,27.83
2022-11-21T14:08:33.851Z,27.73
2022-11-21T14:11:19.251Z,27.43
2022-11-21T14:13:48.499Z,27.80
2022-11-21T14:16:29.496Z,29.07
2022-11-21T14:18:56.407Z,28.63
2022-11-21T14:21:27.185Z,28.70
2022-11-21T14:23:57.440Z,29.97
2022-11-21T14:26:25.581Z,30.03
2022-11-21T14:28:52.277Z,28.97
2022-11-21T14:31:19.199Z,28.70
2022-11-21T14:33:47.578Z,28.60
2022-11-21T14:36:14.972Z,28.33
2022-11-21T14:38:44.298Z,28.73
2022-11-21T14:41:28.912Z,28.27
2022-11-21T14:43:58.795Z,37.17
2022-11-21T14:46:27.404Z,31.67
2022-11-21T14:48:54.186Z,30.70
2022-11-21T14:51:22.556Z,31.43
2022-11-21T14:53:50.853Z,30.07
2022-11-21T14:56:21.144Z,30.57
2022-11-21T14:58:48.212Z,31.30
2022-11-21T15:01:22.527Z,32.40
2022-11-21T15:04:15.595Z,32.33
2022-11-21T15:06:43.990Z,34.57
2022-11-21T15:10:25.504Z,32.63
2022-11-21T15:12:06.030Z,32.50
2022-11-21T15:14:43.558Z,32.67
2022-11-21T15:17:16.097Z,33.73
2022-11-21T15:19:43.485Z,32.10
2022-11-21T15:22:23.517Z,34.60
2022-11-21T15:24:50.610Z,35.93
2022-11-21T15:27:44.226Z,38.23
2022-11-21T15:30:10.576Z,39.13
2022-11-21T15:33:03.230Z,38.10
2022-11-21T15:35:35.902Z,40.30
2022-11-21T15:38:02.965Z,40.57
2022-11-21T15:40:29.837Z,41.27
2022-11-21T15:42:56.447Z,39.40
2022-11-21T15:45:25.761Z,41.03
2022-11-21T15:47:52.773Z,40.30
2022-11-21T15:50:22.764Z,42.43
2022-11-21T15:52:51.418Z,40.87
2022-11-21T15:55:29.410Z,40.40
2022-11-21T15:57:56.161Z,41.13
2022-11-21T16:00:22.995Z,40.07
2022-11-21T16:02:49.649Z,41.90
2022-11-21T16:05:16.761Z,42.80
2022-11-21T16:07:43.339Z,41.60
2022-11-21T16:10:18.255Z,40.93
2022-11-21T16:12:47.904Z,38.67
2022-11-21T16:15:14.576Z,40.90
2022-11-21T16:17:41.715Z,40.63
2022-11-21T16:20:08.804Z,37.70
2022-11-21T16:22:41.464Z,40.40
2022-11-21T16:25:10.917Z,39.57
2022-11-21T16:27:37.407Z,38.83
2022-11-21T16:30:04.238Z,41.20
2022-11-21T16:32:30.678Z,40.07
2022-11-21T16:34:58.308Z,39.60
2022-11-21T16:37:25.009Z,39.87
2022-11-21T16:39:54.443Z,41.37
2022-11-21T16:42:20.926Z,41.90
2022-11-21T16:44:48.132Z,41.40
2022-11-21T16:47:15.023Z,41.77
2022-11-21T16:49:48.483Z,41.47
2022-11-21T16:52:15.572Z,40.40
2022-11-21T16:54:42.258Z,42.07
2022-11-21T16:57:08.772Z,40.30
2022-11-21T16:59:37.686Z,43.27
2022-11-21T17:02:04.215Z,41.13
2022-11-21T17:04:31.026Z,39.37
2022-11-21T17:06:57.876Z,42.00
2022-11-21T17:09:24.609Z,40.93
2022-11-21T17:11:51.283Z,40.63
2022-11-21T17:14:17.726Z,39.17
2022-11-21T17:16:45.792Z,40.20
2022-11-21T17:19:12.649Z,40.27
2022-11-21T17:21:39.186Z,38.43
2022-11-21T17:24:06.031Z,38.53
2022-11-21T17:26:36.110Z,38.40
2022-11-21T17:29:05.776Z,39.57
2022-11-21T17:31:32.581Z,38.60
2022-11-21T17:34:00.691Z,39.73
2022-11-21T17:36:29.120Z,38.83
2022-11-21T17:38:55.925Z,39.90
2022-11-21T17:41:23.774Z,38.20
2022-11-21T17:43:53.984Z,38.27
2022-11-21T17:46:20.612Z,37.73
2022-11-21T17:48:54.636Z,40.20
2022-11-21T17:51:25.574Z,38.53
2022-11-21T17:53:52.581Z,40.13
2022-11-21T17:56:21.466Z,39.37
2022-11-21T17:58:48.315Z,37.97
2022-11-21T18:01:19.469Z,37.97
2022-11-21T18:03:47.665Z,39.77
2022-11-21T18:06:16.220Z,38.30
2022-11-21T18:08:44.315Z,38.53
2022-11-21T18:11:12.728Z,39.27
2022-11-21T18:13:39.766Z,36.97
2022-11-21T18:16:08.584Z,39.03
2022-11-21T18:18:36.191Z,38.70
2022-11-21T18:21:04.365Z,37.60
2022-11-21T18:23:31.151Z,38.23
2022-11-21T18:26:09.693Z,36.93
2022-11-21T18:28:36.179Z,38.33
2022-11-21T18:31:23.272Z,38.67
2022-11-21T18:33:52.082Z,38.63
2022-11-21T18:36:19.198Z,38.73
2022-11-21T18:38:49.573Z,40.67
2022-11-21T18:41:28.304Z,37.30
2022-11-21T18:43:59.498Z,38.90
2022-11-21T18:46:27.741Z,38.00
2022-11-21T18:49:02.807Z,39.90
2022-11-21T18:51:32.003Z,39.83
2022-11-21T18:54:00.408Z,37.53
2022-11-21T18:56:27.071Z,38.93
2022-11-21T18:58:58.388Z,36.60
2022-11-21T19:01:27.996Z,37.67
2022-11-21T19:03:55.246Z,36.50
2022-11-21T19:06:23.255Z,37.17
2022-11-21T19:08:53.124Z,34.43
2022-11-21T19:11:20.601Z,36.03
2022-11-21T19:13:47.928Z,36.83
2022-11-21T19:16:17.236Z,35.97
2022-11-21T19:18:48.486Z,35.47
2022-11-21T19:21:21.980Z,34.70
2022-11-21T19:23:49.073Z,34.80
2022-11-21T19:26:18.286Z,33.97
2022-11-21T19:28:45.589Z,35.17
2022-11-21T19:31:14.769Z,34.70
2022-11-21T19:33:41.744Z,34.40
2022-11-21T19:36:19.521Z,33.87
2022-11-21T19:38:50.667Z,32.70
2022-11-21T19:41:21.060Z,32.87
2022-11-21T19:43:51.238Z,35.17
2022-11-21T19:46:23.185Z,36.23
2022-11-21T19:48:51.085Z,34.37
2022-11-21T19:51:18.508Z,34.27
2022-11-21T19:53:45.674Z,34.57
2022-11-21T19:56:20.400Z,34.17
2022-11-21T19:58:47.931Z,33.37
2022-11-21T20:01:20.160Z,33.70
2022-11-21T20:03:49.799Z,33.17
2022-11-21T20:06:24.746Z,33.07
2022-11-21T20:08:55.906Z,34.27
2022-11-21T20:11:23.381Z,32.50
2022-11-21T20:13:50.932Z,33.33
2022-11-21T20:16:19.370Z,34.90
2022-11-21T20:18:46.455Z,35.73
2022-11-21T20:21:13.582Z,34.00
2022-11-21T20:23:40.389Z,33.80
2022-11-21T20:26:08.120Z,33.60
2022-11-21T20:28:36.892Z,34.13
2022-11-21T20:31:11.656Z,34.80
2022-11-21T20:33:39.953Z,36.40
2022-11-21T20:36:11.265Z,35.73
2022-11-21T20:38:37.993Z,35.77
2022-11-21T20:41:05.164Z,35.27
2022-11-21T20:43:59.509Z,37.53
2022-11-21T20:46:20.664Z,36.17
2022-11-21T20:48:47.787Z,37.83
2022-11-21T20:52:43.328Z,36.50
2022-11-21T20:54:03.631Z,37.00
2022-11-21T20:56:35.188Z,37.00
2022-11-21T20:59:01.858Z,37.87
2022-11-21T21:01:28.613Z,36.90
2022-11-21T21:03:55.485Z,37.17
2022-11-21T21:06:24.167Z,39.03
2022-11-21T21:08:51.627Z,36.20
2022-11-21T21:11:49.760Z,36.70
2022-11-21T21:14:07.940Z,38.30
2022-11-21T21:16:36.205Z,38.77
2022-11-21T21:19:02.700Z,38.60
2022-11-21T21:21:30.848Z,40.37
2022-11-21T21:24:02.125Z,41.37
2022-11-21T21:26:30.761Z,39.33
2022-11-21T21:28:58.324Z,38.07
2022-11-21T21:31:24.924Z,38.83
2022-11-21T21:33:51.891Z,38.20
2022-11-21T21:36:20.944Z,39.03
2022-11-21T21:38:54.724Z,37.53
2022-11-21T21:41:22.143Z,39.10
2022-11-21T21:43:49.919Z,38.03
2022-11-21T21:46:18.102Z,37.47
2022-11-21T21:48:45.335Z,38.77
2022-11-21T21:51:21.904Z,38.23
2022-11-21T21:53:50.103Z,38.40
2022-11-21T21:56:18.600Z,37.37
2022-11-21T21:58:46.130Z,37.03
2022-11-21T22:01:32.398Z,36.97
2022-11-21T22:04:00.960Z,36.80
2022-11-21T22:06:28.216Z,35.80
2022-11-21T22:08:55.099Z,37.27
2022-11-21T22:11:23.991Z,36.93
2022-11-21T22:13:58.851Z,36.63
2022-11-21T22:16:25.550Z,36.77
2022-11-21T22:18:52.397Z,34.70
2022-11-21T22:21:24.568Z,37.40
2022-11-21T22:24:22.919Z,36.00
2022-11-21T22:26:37.930Z,33.53
2022-11-21T22:29:04.589Z,37.63
2022-11-21T22:31:32.051Z,34.23
2022-11-21T22:33:58.860Z,35.60
2022-11-21T22:36:25.468Z,34.43
2022-11-21T22:38:56.046Z,34.27
2022-11-21T22:41:24.724Z,32.83
2022-11-21T22:43:53.370Z,34.60
2022-11-21T22:46:20.534Z,35.20
2022-11-21T22:48:47.740Z,35.67
2022-11-21T22:51:17.124Z,35.47
2022-11-21T22:53:45.904Z,34.53
2022-11-21T22:56:12.964Z,35.97
2022-11-21T22:58:40.430Z,34.37
2022-11-21T23:01:10.012Z,34.00
2022-11-21T23:03:36.763Z,32.23
2022-11-21T23:06:04.746Z,33.63
2022-11-21T23:08:31.719Z,33.73
2022-11-21T23:11:08.217Z,34.03
2022-11-21T23:13:35.879Z,34.77
2022-11-21T23:16:03.368Z,34.07
2022-11-21T23:18:30.522Z,34.53
2022-11-21T23:20:57.141Z,32.40
2022-11-21T23:23:23.767Z,32.57
2022-11-21T23:25:50.300Z,33.10
2022-11-21T23:28:16.860Z,34.17
2022-11-21T23:30:44.841Z,32.43
2022-11-21T23:33:11.855Z,32.63
2022-11-21T23:35:38.414Z,31.43
2022-11-21T23:38:05.020Z,33.23
2022-11-21T23:40:31.676Z,34.13
2022-11-21T23:42:58.233Z,32.63
2022-11-21T23:45:24.868Z,33.70
2022-11-21T23:47:51.706Z,31.40
2022-11-21T23:50:19.476Z,32.90
2022-11-21T23:52:46.568Z,32.50
2022-11-21T23:55:13.272Z,33.73
2022-11-21T23:57:39.899Z,33.20
